Time;durP1;ratioP1;P1;durP2;ratioP2;P2;SDS_P1;SDS_P2;PMS_P1;PMS_P2;Temp;Humidity;BMP_temperature;BMP_pressure;BME280_temperature;BME280_humidity;BME280_pressure;Samples;Min_cycle;Max_cycle;Signal;HPM_P1;HPM_P2
2024/04/20 00:02:02;;;;;;;19.65;7.15;;;3.30;99.90;;;;;;5088105;27;20014;-80
2024/04/20 00:05:00;;;;;;;17.70;7.20;;;3.40;99.90;;;;;;5093540;28;20025;-81
2024/04/20 00:09:02;;;;;;;17.55;7.35;;;3.40;99.90;;;;;;5084956;27;20018;-81
2024/04/20 00:13:03;;;;;;;12.82;6.85;;;3.40;99.90;;;;;;5080473;28;20842;-80
2024/04/20 00:15:49;;;;;;;20.77;7.22;;;3.40;99.90;;;;;;5106459;28;20024;-80
2024/04/20 00:18:38;;;;;;;18.17;7.55;;;3.40;99.90;;;;;;5092116;28;20010;-80
2024/04/20 00:21:26;;;;;;;19.15;6.53;;;3.40;99.90;;;;;;5118656;27;20022;-76
2024/04/20 00:24:15;;;;;;;15.68;6.45;;;3.40;99.90;;;;;;5103225;27;20013;-82
2024/04/20 00:27:03;;;;;;;12.13;6.55;;;3.40;99.90;;;;;;5076569;28;20475;-82
2024/04/20 00:29:50;;;;;;;16.27;6.65;;;3.30;99.90;;;;;;5083430;27;20481;-82
2024/04/20 00:32:37;;;;;;;20.80;6.57;;;3.30;99.90;;;;;;5095796;28;20010;-83
2024/04/20 00:35:43;;;;;;;14.88;6.28;;;3.30;99.90;;;;;;5087239;27;20021;-79
2024/04/20 00:38:32;;;;;;;26.77;6.40;;;3.30;99.90;;;;;;5088584;27;20489;-78
2024/04/20 00:41:19;;;;;;;17.42;6.53;;;3.30;99.90;;;;;;5101660;27;20013;-82
2024/04/20 00:44:16;;;;;;;18.65;6.50;;;3.30;99.90;;;;;;5100349;27;20010;-81
2024/04/20 00:47:07;;;;;;;18.38;5.43;;;3.30;99.90;;;;;;5093618;28;20010;-83
2024/04/20 00:49:54;;;;;;;13.10;6.25;;;3.40;99.90;;;;;;5087337;27;20017;-82
2024/04/20 00:52:43;;;;;;;14.07;6.22;;;3.30;99.90;;;;;;5088927;27;20017;-82
2024/04/20 00:55:31;;;;;;;13.63;5.30;;;3.30;99.90;;;;;;5097717;28;20347;-80
2024/04/20 00:58:20;;;;;;;18.58;5.22;;;3.30;99.90;;;;;;5098885;27;20128;-82
2024/04/20 01:01:08;;;;;;;15.38;5.32;;;3.30;99.90;;;;;;5098869;27;20528;-82
2024/04/20 01:03:56;;;;;;;17.88;5.80;;;3.40;99.90;;;;;;5103979;28;20020;-76
2024/04/20 01:06:43;;;;;;;28.20;6.45;;;3.30;99.90;;;;;;5111849;27;20052;-83
2024/04/20 01:09:31;;;;;;;17.52;5.88;;;3.40;99.90;;;;;;5099371;27;20495;-77
2024/04/20 01:12:18;;;;;;;16.40;5.72;;;3.30;99.90;;;;;;5129500;28;20009;-84
2024/04/20 01:15:06;;;;;;;19.83;6.53;;;3.40;99.20;;;;;;5111234;28;20017;-83
2024/04/20 01:17:54;;;;;;;14.15;6.47;;;3.40;99.90;;;;;;5099480;28;20013;-77
2024/04/20 01:20:42;;;;;;;18.40;5.65;;;3.30;99.90;;;;;;5089208;27;20025;-81
2024/04/20 01:23:31;;;;;;;16.25;6.10;;;3.30;99.90;;;;;;5107719;27;20059;-84
2024/04/20 01:26:19;;;;;;;16.75;5.50;;;3.30;99.90;;;;;;5093582;28;20463;-79
2024/04/20 01:29:06;;;;;;;16.13;6.03;;;3.40;99.90;;;;;;5096134;27;20852;-82
2024/04/20 01:31:56;;;;;;;19.08;5.20;;;3.30;99.90;;;;;;5090067;28;20009;-82
2024/04/20 01:34:43;;;;;;;16.13;5.55;;;3.40;99.90;;;;;;5109577;27;20100;-81
2024/04/20 01:37:31;;;;;;;10.77;4.60;;;3.30;92.00;;;;;;5092285;27;20463;-82
2024/04/20 01:40:18;;;;;;;17.55;5.32;;;3.30;96.40;;;;;;5101806;27;20429;-77
2024/04/20 01:43:06;;;;;;;22.65;5.75;;;3.30;60.50;;;;;;5109062;28;20012;-79
2024/04/20 01:45:54;;;;;;;24.13;5.57;;;3.20;49.20;;;;;;5135324;27;20010;-80
2024/04/20 01:48:44;;;;;;;23.25;5.57;;;3.20;64.30;;;;;;5110930;27;20018;-77
2024/04/20 01:51:31;;;;;;;17.55;5.35;;;3.20;94.10;;;;;;5112742;27;20382;-84
2024/04/20 01:54:30;;;;;;;15.63;5.78;;;3.20;99.90;;;;;;5103134;27;20010;-83
2024/04/20 01:57:30;;;;;;;19.60;5.47;;;3.20;99.90;;;;;;5095188;27;20010;-81
2024/04/20 02:00:18;;;;;;;17.35;5.05;;;3.10;99.90;;;;;;5085559;28;20006;-83
2024/04/20 02:03:14;;;;;;;13.82;4.70;;;3.20;99.90;;;;;;5109001;27;20097;-82
2024/04/20 02:06:02;;;;;;;15.65;4.28;;;3.10;94.90;;;;;;5096853;27;20013;-83
2024/04/20 02:08:50;;;;;;;16.42;4.88;;;3.10;31.70;;;;;;5095370;27;20028;-81
2024/04/20 02:11:47;;;;;;;16.98;4.97;;;3.10;13.00;;;;;;5116817;27;20030;-83
2024/04/20 02:14:34;;;;;;;15.23;4.10;;;3.00;1.00;;;;;;5097419;28;20010;-81
2024/04/20 02:17:22;;;;;;;24.30;4.50;;;3.00;1.00;;;;;;5101651;27;20774;-84
2024/04/20 02:20:11;;;;;;;16.30;5.55;;;3.00;1.00;;;;;;5092024;27;20038;-82
2024/04/20 02:23:00;;;;;;;21.98;4.95;;;2.90;1.00;;;;;;5092286;27;20467;-82
2024/04/20 02:25:50;;;;;;;12.15;3.80;;;2.90;1.00;;;;;;5095143;28;20355;-84
2024/04/20 02:28:45;;;;;;;24.42;4.65;;;2.80;1.00;;;;;;5097062;27;20321;-81
2024/04/20 02:31:33;;;;;;;12.07;3.90;;;2.90;1.00;;;;;;5117761;27;20021;-83
2024/04/20 02:34:22;;;;;;;16.77;4.80;;;2.80;1.00;;;;;;5092428;27;20010;-83
2024/04/20 02:37:15;;;;;;;10.95;4.60;;;2.80;1.00;;;;;;5103806;27;20005;-83
2024/04/20 02:40:04;;;;;;;17.40;4.82;;;2.70;1.00;;;;;;5097843;27;20028;-81
2024/04/20 02:42:54;;;;;;;13.57;4.05;;;2.70;1.00;;;;;;5096747;27;20520;-84
2024/04/20 02:45:43;;;;;;;12.95;4.18;;;2.70;1.00;;;;;;5108350;27;20006;-79
2024/04/20 02:48:32;;;;;;;19.27;4.72;;;2.60;1.00;;;;;;5090211;27;20698;-83
2024/04/20 02:51:39;;;;;;;22.27;5.13;;;2.60;1.00;;;;;;5091668;27;20010;-76
2024/04/20 02:54:26;;;;;;;17.55;4.18;;;2.60;1.00;;;;;;5114652;27;20345;-77
2024/04/20 02:57:14;;;;;;;18.98;4.82;;;2.50;1.00;;;;;;5114419;27;20479;-80
2024/04/20 03:00:02;;;;;;;13.75;4.72;;;2.60;29.10;;;;;;5093490;27;20021;-80
2024/04/20 03:02:49;;;;;;;19.10;4.40;;;2.70;55.00;;;;;;5098990;27;20020;-81
2024/04/20 03:05:38;;;;;;;18.33;4.95;;;2.70;75.00;;;;;;5121493;27;20013;-79
2024/04/20 03:08:27;;;;;;;22.20;5.15;;;2.80;94.70;;;;;;5101280;27;20533;-80
2024/04/20 03:11:14;;;;;;;19.90;4.40;;;2.80;97.30;;;;;;5091680;28;20011;-83
2024/04/20 03:14:02;;;;;;;14.45;4.65;;;2.80;80.20;;;;;;5096812;27;20010;-79
2024/04/20 03:16:49;;;;;;;16.92;4.90;;;2.70;43.00;;;;;;5095779;27;20642;-82
2024/04/20 03:19:38;;;;;;;20.55;5.35;;;2.70;11.20;;;;;;5108754;27;20021;-81
2024/04/20 03:22:26;;;;;;;16.83;5.03;;;2.60;1.00;;;;;;5093197;28;20700;-82
2024/04/20 03:25:15;;;;;;;13.73;5.05;;;2.60;1.00;;;;;;5090331;27;20026;-82
2024/04/20 03:28:03;;;;;;;21.00;5.18;;;2.50;1.00;;;;;;5099179;27;20013;-79
2024/04/20 03:30:51;;;;;;;17.05;5.43;;;2.50;1.00;;;;;;5112695;27;20023;-82
2024/04/20 03:33:39;;;;;;;20.50;4.70;;;2.50;17.70;;;;;;5095910;28;20595;-79
2024/04/20 03:36:34;;;;;;;17.83;5.63;;;2.50;42.80;;;;;;5103615;28;20014;-79
2024/04/20 03:39:26;;;;;;;19.88;5.35;;;2.50;78.60;;;;;;5108838;27;20031;-81
2024/04/20 03:42:13;;;;;;;13.80;4.75;;;2.50;92.10;;;;;;5105835;27;20010;-81
2024/04/20 03:45:03;;;;;;;17.85;4.90;;;2.50;98.70;;;;;;5093134;28;20025;-81
2024/04/20 03:47:51;;;;;;;20.33;5.25;;;2.40;91.40;;;;;;5127529;27;20422;-82
2024/04/20 03:50:39;;;;;;;13.73;4.97;;;2.40;99.80;;;;;;5091283;27;20025;-83
2024/04/20 03:53:27;;;;;;;14.02;4.63;;;2.40;99.90;;;;;;5112265;27;20040;-83
2024/04/20 03:56:17;;;;;;;21.98;5.25;;;2.30;99.90;;;;;;5102314;27;20016;-83
2024/04/20 03:59:04;;;;;;;22.10;5.35;;;2.30;99.90;;;;;;5101750;27;20046;-82
2024/04/20 04:01:52;;;;;;;21.67;6.25;;;2.30;99.90;;;;;;5093288;28;20006;-79
2024/04/20 04:04:44;;;;;;;16.55;5.25;;;2.30;99.90;;;;;;5092840;28;20014;-80
2024/04/20 04:07:32;;;;;;;22.70;6.00;;;2.30;99.90;;;;;;5097969;27;20533;-81
2024/04/20 04:10:22;;;;;;;14.38;5.90;;;2.30;99.90;;;;;;5092080;27;20006;-82
2024/04/20 04:13:14;;;;;;;15.85;5.32;;;2.30;99.90;;;;;;5090325;28;20033;-80
2024/04/20 04:16:02;;;;;;;13.82;5.28;;;2.30;99.90;;;;;;5111538;27;20010;-84
2024/04/20 04:18:50;;;;;;;14.88;5.45;;;2.30;99.90;;;;;;5098957;28;20068;-81
2024/04/20 04:21:38;;;;;;;17.70;5.43;;;2.40;99.90;;;;;;5119042;27;20006;-79
2024/04/20 04:24:26;;;;;;;17.38;5.97;;;2.40;99.90;;;;;;5128385;27;20026;-77
2024/04/20 04:27:16;;;;;;;17.35;5.53;;;2.40;99.90;;;;;;5112728;27;20005;-78
2024/04/20 04:30:05;;;;;;;15.60;5.82;;;2.30;99.90;;;;;;5133119;27;20051;-78
2024/04/20 04:32:54;;;;;;;12.40;5.40;;;2.30;99.90;;;;;;5129885;27;20013;-79
2024/04/20 04:35:41;;;;;;;14.77;7.45;;;2.30;99.90;;;;;;5096272;27;20022;-83
2024/04/20 04:38:29;;;;;;;14.10;5.25;;;2.30;99.90;;;;;;5093934;27;20424;-81
2024/04/20 04:41:18;;;;;;;11.38;5.10;;;2.30;99.90;;;;;;5091564;27;20025;-81
2024/04/20 04:44:07;;;;;;;13.05;4.90;;;2.30;99.90;;;;;;5119057;27;20022;-83
2024/04/20 04:46:58;;;;;;;14.70;5.85;;;2.30;99.90;;;;;;5094901;27;20010;-82
2024/04/20 04:49:46;;;;;;;13.48;6.32;;;2.30;99.90;;;;;;5103662;27;20073;-82
2024/04/20 04:52:35;;;;;;;20.73;5.38;;;2.30;99.90;;;;;;5102716;27;20021;-76
2024/04/20 04:55:26;;;;;;;17.00;5.65;;;2.40;99.90;;;;;;5122277;27;20067;-77
2024/04/20 04:58:18;;;;;;;15.60;6.07;;;2.40;99.90;;;;;;5122103;27;20012;-78
2024/04/20 05:01:06;;;;;;;17.58;5.68;;;2.50;99.90;;;;;;5115356;27;19998;-76
2024/04/20 05:03:55;;;;;;;17.70;6.13;;;2.50;99.90;;;;;;5141183;27;20148;-81
2024/04/20 05:06:46;;;;;;;15.70;5.80;;;2.60;99.90;;;;;;5093049;28;20006;-82
2024/04/20 05:09:34;;;;;;;18.73;6.05;;;2.60;99.90;;;;;;5104345;27;20101;-78
2024/04/20 05:12:21;;;;;;;16.52;6.57;;;2.60;99.90;;;;;;5116312;27;20046;-82
2024/04/20 05:15:09;;;;;;;14.65;6.60;;;2.60;99.90;;;;;;5097842;27;20010;-81
2024/04/20 05:18:06;;;;;;;14.20;6.13;;;2.60;99.90;;;;;;5095685;28;20010;-80
2024/04/20 05:20:56;;;;;;;12.10;6.35;;;2.70;99.90;;;;;;5111790;27;20010;-82
2024/04/20 05:23:44;;;;;;;25.65;6.72;;;2.70;99.90;;;;;;5102084;27;20026;-80
2024/04/20 05:26:33;;;;;;;16.63;7.03;;;2.70;99.90;;;;;;5107982;27;20014;-81
2024/04/20 05:29:21;;;;;;;24.30;7.07;;;2.80;99.90;;;;;;5096700;27;20022;-84
2024/04/20 05:32:08;;;;;;;15.43;7.35;;;2.80;99.90;;;;;;5101960;27;20352;-81
2024/04/20 05:34:55;;;;;;;18.58;7.00;;;2.90;99.90;;;;;;5098173;28;20014;-80
2024/04/20 05:42:23;;;;;;;16.38;7.25;;;3.10;99.90;;;;;;5115157;27;20024;-80
2024/04/20 05:45:28;;;;;;;15.52;7.00;;;3.20;99.90;;;;;;5112766;28;20021;-82
2024/04/20 05:48:40;;;;;;;17.15;7.03;;;3.20;99.90;;;;;;5098294;27;20140;-82
2024/04/20 05:51:27;;;;;;;17.17;6.70;;;3.40;99.90;;;;;;5108210;28;20020;-82
2024/04/20 05:54:16;;;;;;;18.08;6.55;;;3.40;99.90;;;;;;5110416;27;20014;-80
2024/04/20 05:57:09;;;;;;;21.13;7.15;;;3.50;99.90;;;;;;5097777;27;20024;-80
2024/04/20 06:03:25;;;;;;;15.93;8.43;;;3.50;99.90;;;;;;5111555;28;20067;-80
2024/04/20 06:06:13;;;;;;;11.23;6.45;;;3.80;99.90;;;;;;5109003;27;20017;-81
2024/04/20 06:09:00;;;;;;;10.10;5.90;;;3.80;94.50;;;;;;5137124;27;20010;-82
2024/04/20 06:11:50;;;;;;;10.45;5.30;;;4.00;88.50;;;;;;5099262;27;20025;-79
2024/04/20 06:14:37;;;;;;;9.05;4.60;;;3.80;1.00;;;;;;5103480;27;20026;-82
2024/04/20 06:18:03;;;;;;;8.57;4.63;;;3.40;99.90;;;;;;5095955;27;20281;-82
2024/04/20 06:21:04;;;;;;;8.63;4.13;;;3.40;99.90;;;;;;5092675;27;20033;-80
2024/04/20 06:24:14;;;;;;;6.43;4.03;;;3.70;99.90;;;;;;5112537;27;20031;-80
2024/04/20 06:27:22;;;;;;;6.05;3.55;;;3.80;99.90;;;;;;5122940;27;20020;-80
2024/04/20 06:30:10;;;;;;;5.30;3.72;;;3.70;1.00;;;;;;5117488;27;20006;-78
2024/04/20 06:32:57;;;;;;;7.70;3.50;;;3.90;1.00;;;;;;5114676;27;20018;-80
2024/04/20 06:35:47;;;;;;;5.00;2.95;;;4.00;99.90;;;;;;5113889;27;20014;-79
2024/04/20 06:38:37;;;;;;;9.95;3.20;;;4.50;99.90;;;;;;5115412;27;20063;-78
2024/04/20 06:41:28;;;;;;;4.07;2.42;;;4.80;1.00;;;;;;5133750;27;20022;-80
2024/04/20 06:44:15;;;;;;;3.03;2.72;;;5.40;1.00;;;;;;5107009;27;20650;-81
2024/04/20 06:47:03;;;;;;;6.32;2.80;;;5.90;99.90;;;;;;5117324;27;20001;-81
2024/04/20 06:49:55;;;;;;;3.97;1.80;;;6.20;99.90;;;;;;5120014;27;20017;-81
2024/04/20 06:52:47;;;;;;;4.32;2.40;;;6.50;99.90;;;;;;5099396;28;20024;-79
2024/04/20 06:55:44;;;;;;;4.60;2.00;;;6.60;99.90;;;;;;5099118;28;20010;-77
2024/04/20 06:58:42;;;;;;;5.05;2.22;;;6.70;1.00;;;;;;5107048;27;20046;-81
2024/04/20 07:01:31;;;;;;;5.63;2.50;;;7.00;99.90;;;;;;5113075;27;20089;-82
2024/04/20 07:04:20;;;;;;;9.70;3.03;;;7.40;1.00;;;;;;5107273;27;20010;-81
2024/04/20 07:07:09;;;;;;;6.60;2.80;;;7.50;65.00;;;;;;5096425;28;20017;-79
2024/04/20 07:09:59;;;;;;;8.02;2.67;;;7.60;99.90;;;;;;5105817;27;20010;-75
2024/04/20 07:12:47;;;;;;;6.18;2.13;;;7.80;56.80;;;;;;5089684;28;20022;-82
2024/04/20 07:16:32;;;;;;;10.18;3.22;;;7.90;1.00;;;;;;5118028;27;20081;-80
2024/04/20 07:28:19;;;;;;;;;;;;;;;;;;;;;
2024/04/20 07:40:35;;;;;;;6.97;3.10;;;6.30;99.90;;;;;;4991514;28;20004;-81
2024/04/20 07:45:15;;;;;;;10.45;3.50;;;6.20;99.90;;;;;;4877805;29;20014;-82
2024/04/20 07:47:58;;;;;;;8.15;2.90;;;6.90;99.90;;;;;;4977730;28;20011;-83
2024/04/20 07:50:48;;;;;;;13.18;3.03;;;7.70;99.90;;;;;;4997020;28;20070;-81
2024/04/20 07:53:38;;;;;;;5.35;2.42;;;8.60;99.90;;;;;;4999864;28;20022;-81
2024/04/20 07:56:27;;;;;;;4.55;2.10;;;9.00;1.00;;;;;;5082672;28;20025;-82
2024/04/20 07:59:14;;;;;;;8.23;2.70;;;9.20;1.00;;;;;;5112423;27;20037;-83
2024/04/20 08:02:02;;;;;;;5.93;2.38;;;8.70;1.00;;;;;;5094200;27;20029;-80
2024/04/20 08:04:49;;;;;;;6.90;2.38;;;8.00;99.90;;;;;;5092414;28;20010;-84
2024/04/20 08:07:37;;;;;;;4.82;2.50;;;8.10;99.90;;;;;;5095620;27;20014;-81
2024/04/20 08:10:28;;;;;;;4.80;2.22;;;8.30;99.90;;;;;;5095910;27;20013;-82
2024/04/20 08:13:16;;;;;;;4.70;2.45;;;8.10;99.90;;;;;;5089749;28;20005;-82
2024/04/20 08:16:06;;;;;;;8.80;2.55;;;8.20;99.90;;;;;;5090801;28;20089;-80
2024/04/20 08:18:57;;;;;;;5.22;2.03;;;8.10;99.90;;;;;;5118266;27;20021;-84
2024/04/20 08:21:45;;;;;;;2.38;1.70;;;8.10;99.90;;;;;;5114623;27;20063;-80
2024/04/20 08:24:34;;;;;;;8.07;2.58;;;7.70;99.90;;;;;;5096483;28;20093;-77
2024/04/20 08:27:21;;;;;;;4.85;2.40;;;7.60;99.90;;;;;;5110414;28;20086;-83
2024/04/20 08:30:09;;;;;;;5.97;2.53;;;7.60;99.90;;;;;;5112002;27;20025;-82
2024/04/20 08:33:00;;;;;;;4.30;2.00;;;7.60;99.90;;;;;;5109555;27;20009;-81
2024/04/20 08:35:47;;;;;;;5.68;2.67;;;7.60;99.90;;;;;;5111792;27;20010;-86
2024/04/20 08:38:38;;;;;;;12.05;2.85;;;7.90;99.90;;;;;;5095065;27;20464;-80
2024/04/20 08:41:28;;;;;;;7.15;2.38;;;8.40;99.90;;;;;;5100833;28;20022;-81
2024/04/20 08:44:19;;;;;;;6.43;3.38;;;8.70;99.90;;;;;;5105943;27;20006;-83
2024/04/20 08:47:12;;;;;;;5.13;2.80;;;8.80;99.90;;;;;;5105023;28;20014;-82
2024/04/20 08:50:03;;;;;;;5.28;2.75;;;8.70;99.90;;;;;;5115909;27;20002;-79
2024/04/20 08:52:54;;;;;;;2.85;2.20;;;8.60;99.90;;;;;;5101880;27;20046;-83
2024/04/20 08:55:41;;;;;;;4.95;2.55;;;8.70;99.90;;;;;;5104177;27;20069;-79
2024/04/20 08:58:34;;;;;;;5.13;2.78;;;8.60;99.90;;;;;;5102372;27;20010;-77
2024/04/20 09:01:25;;;;;;;6.00;2.50;;;8.60;99.90;;;;;;5112645;28;20010;-79
2024/04/20 09:04:17;;;;;;;6.55;2.78;;;8.20;99.90;;;;;;5109536;27;20043;-82
2024/04/20 09:07:08;;;;;;;6.50;2.55;;;8.00;99.90;;;;;;5110712;27;20017;-76
2024/04/20 09:09:59;;;;;;;6.38;2.63;;;7.90;99.90;;;;;;5107309;27;20022;-81
2024/04/20 09:12:58;;;;;;;7.35;3.30;;;7.80;99.90;;;;;;5107425;27;20063;-84
2024/04/20 09:15:47;;;;;;;3.78;2.70;;;7.50;99.90;;;;;;5106234;27;20014;-80
2024/04/20 09:18:35;;;;;;;6.72;3.53;;;7.20;99.90;;;;;;5121364;27;20010;-78
2024/04/20 09:21:24;;;;;;;9.00;3.47;;;6.90;99.90;;;;;;5129027;27;20010;-83
2024/04/20 09:24:13;;;;;;;5.72;3.85;;;6.80;99.90;;;;;;5092150;27;20412;-80
2024/04/20 09:27:12;;;;;;;8.90;3.67;;;6.40;99.90;;;;;;5115802;28;20030;-83
2024/04/20 09:30:10;;;;;;;7.78;4.82;;;6.20;99.90;;;;;;5116896;27;20029;-84
2024/04/20 09:33:01;;;;;;;9.40;5.38;;;6.00;99.90;;;;;;5108159;28;20301;-83
2024/04/20 09:35:49;;;;;;;8.70;4.40;;;6.00;99.90;;;;;;5100905;28;20034;-78
2024/04/20 09:38:37;;;;;;;12.75;5.20;;;5.80;99.90;;;;;;5104154;27;20054;-79
2024/04/20 09:41:30;;;;;;;11.65;4.40;;;5.80;1.00;;;;;;5102327;27;20010;-79
2024/04/20 09:44:22;;;;;;;10.93;5.00;;;6.10;1.00;;;;;;5095178;28;20469;-83
2024/04/20 09:47:11;;;;;;;8.98;4.68;;;6.40;1.00;;;;;;5102218;27;20026;-86
2024/04/20 09:50:11;;;;;;;7.70;3.80;;;6.60;1.00;;;;;;5122802;27;20080;-84
2024/04/20 09:53:13;;;;;;;7.18;3.17;;;7.70;1.00;;;;;;5115833;27;20102;-83
2024/04/20 09:56:10;;;;;;;9.32;3.80;;;8.50;1.00;;;;;;5122775;27;20009;-81
2024/04/20 09:59:05;;;;;;;6.22;2.47;;;9.80;99.90;;;;;;5100028;27;20027;-81
2024/04/20 10:02:00;;;;;;;9.60;3.00;;;9.80;99.90;;;;;;5095798;28;20478;-82
2024/04/20 10:04:51;;;;;;;4.53;2.53;;;9.30;99.90;;;;;;5098819;27;20010;-83
2024/04/20 10:07:44;;;;;;;6.43;2.40;;;9.10;99.90;;;;;;5102249;27;20014;-83
2024/04/20 10:10:39;;;;;;;5.80;3.20;;;8.50;99.90;;;;;;5099663;27;20488;-80
2024/04/20 10:13:28;;;;;;;9.60;3.40;;;7.90;99.90;;;;;;5103612;27;20014;-83
2024/04/20 10:16:17;;;;;;;5.00;2.85;;;7.40;99.90;;;;;;5100056;28;20038;-83
2024/04/20 10:19:17;;;;;;;10.48;3.80;;;7.20;99.90;;;;;;5112942;27;20036;-82
2024/04/20 10:22:05;;;;;;;4.85;2.70;;;7.30;99.90;;;;;;5106696;27;20076;-82
2024/04/20 10:25:03;;;;;;;6.32;2.67;;;7.10;99.90;;;;;;5100997;27;20018;-78
2024/04/20 10:27:52;;;;;;;3.22;2.67;;;7.00;99.90;;;;;;5125109;27;20018;-78
2024/04/20 10:30:54;;;;;;;6.47;3.38;;;6.70;99.90;;;;;;5114112;28;20045;-80
2024/04/20 10:33:43;;;;;;;7.78;2.58;;;6.80;99.90;;;;;;5098779;27;20024;-80
2024/04/20 10:36:31;;;;;;;4.07;2.53;;;7.20;99.90;;;;;;5095870;27;20013;-78
2024/04/20 10:39:27;;;;;;;6.20;2.70;;;8.00;99.90;;;;;;5109240;27;20464;-82
2024/04/20 10:42:14;;;;;;;7.43;2.90;;;8.70;99.90;;;;;;5098530;27;20452;-82
2024/04/20 10:45:09;;;;;;;6.88;2.53;;;8.80;99.90;;;;;;5099819;27;20018;-82
2024/04/20 10:47:58;;;;;;;4.70;2.60;;;8.60;99.90;;;;;;5112737;27;20025;-83
2024/04/20 10:50:57;;;;;;;5.93;3.25;;;8.50;99.90;;;;;;5121813;27;20021;-77
2024/04/20 10:53:56;;;;;;;6.05;2.30;;;8.40;99.90;;;;;;5104928;27;20010;-81
2024/04/20 10:56:44;;;;;;;4.43;2.80;;;8.10;99.90;;;;;;5092444;28;20022;-83
2024/04/20 10:59:32;;;;;;;6.22;2.38;;;8.00;99.90;;;;;;5098315;27;20017;-84
2024/04/20 11:02:20;;;;;;;4.68;2.58;;;7.90;99.90;;;;;;5093440;28;20006;-84
2024/04/20 11:05:08;;;;;;;5.65;2.25;;;7.80;90.30;;;;;;5100016;27;20024;-82
2024/04/20 11:08:00;;;;;;;2.97;2.20;;;8.00;82.00;;;;;;5111408;27;20025;-81
2024/04/20 11:11:02;;;;;;;3.70;2.42;;;8.00;81.50;;;;;;5075157;28;20014;-81
2024/04/20 11:14:03;;;;;;;6.25;2.47;;;8.00;72.30;;;;;;5099801;27;20025;-81
2024/04/20 11:17:02;;;;;;;7.13;3.17;;;8.30;72.30;;;;;;5094902;27;20005;-82
2024/04/20 11:19:59;;;;;;;11.02;2.67;;;8.50;64.60;;;;;;5096391;27;20034;-80
2024/04/20 11:22:50;;;;;;;3.83;1.95;;;8.60;45.10;;;;;;5133323;27;20120;-82
2024/04/20 11:25:54;;;;;;;9.07;2.25;;;8.80;47.60;;;;;;5093715;27;20014;-81
2024/04/20 11:28:43;;;;;;;6.55;3.08;;;9.20;43.30;;;;;;5122028;27;20045;-84
2024/04/20 11:31:30;;;;;;;6.70;2.15;;;9.80;28.20;;;;;;5115635;27;20463;-83
2024/04/20 11:34:26;;;;;;;4.20;2.15;;;10.20;20.80;;;;;;5100578;28;20721;-83
2024/04/20 11:37:22;;;;;;;5.40;2.33;;;10.40;5.10;;;;;;5099436;27;20006;-85
2024/04/20 11:40:10;;;;;;;8.20;2.40;;;10.20;1.00;;;;;;5103302;27;20009;-81
2024/04/20 11:43:00;;;;;;;8.10;3.15;;;10.00;1.00;;;;;;5100317;27;20075;-82
2024/04/20 11:45:56;;;;;;;4.13;2.10;;;10.40;1.00;;;;;;5119993;27;20021;-79
2024/04/20 11:49:07;;;;;;;5.15;2.40;;;10.70;1.00;;;;;;5132590;27;20002;-79
2024/04/20 11:54:50;;;;;;;5.03;1.80;;;11.60;1.00;;;;;;5110485;27;20521;-82
2024/04/20 11:57:43;;;;;;;2.70;1.70;;;11.80;1.00;;;;;;5108885;28;20544;-80
2024/04/20 12:00:56;;;;;;;5.05;1.60;;;11.80;1.00;;;;;;5113812;27;20052;-81
2024/04/20 12:03:57;;;;;;;4.90;1.95;;;12.20;1.00;;;;;;5114973;27;20021;-82
2024/04/20 12:07:05;;;;;;;2.78;1.88;;;12.20;1.00;;;;;;5098273;28;20010;-82
2024/04/20 12:10:45;;;;;;;3.92;1.80;;;11.90;1.00;;;;;;5100653;27;21016;-81
2024/04/20 12:13:53;;;;;;;2.95;1.80;;;12.40;1.00;;;;;;5096089;28;20024;-83
2024/04/20 12:16:50;;;;;;;4.00;1.73;;;15.20;1.00;;;;;;5091251;27;20192;-83
2024/04/20 12:20:00;;;;;;;3.40;1.77;;;16.00;1.00;;;;;;5067092;27;20010;-80
2024/04/20 12:23:13;;;;;;;4.65;2.10;;;17.30;1.00;;;;;;5091540;27;20014;-85
2024/04/20 12:26:20;;;;;;;4.82;2.25;;;17.40;1.00;;;;;;5090556;28;20006;-84
2024/04/20 12:29:41;;;;;;;3.22;1.60;;;17.00;1.00;;;;;;5094261;27;20028;-83
2024/04/20 12:33:28;;;;;;;3.92;1.60;;;15.80;1.00;;;;;;4996107;28;20012;-80
2024/04/20 12:36:52;;;;;;;2.55;1.50;;;14.40;1.00;;;;;;4984333;28;20023;-77
2024/04/20 12:43:50;;;;;;;3.47;1.60;;;16.00;1.00;;;;;;5097556;27;20017;-82
2024/04/20 12:47:02;;;;;;;4.10;2.00;;;17.70;1.00;;;;;;5092246;28;20006;-83
2024/04/20 12:50:10;;;;;;;5.82;1.67;;;18.90;1.00;;;;;;5093982;27;20010;-82
2024/04/20 12:53:19;;;;;;;2.90;1.17;;;17.50;1.00;;;;;;5101375;27;20014;-85
2024/04/20 12:56:16;;;;;;;1.88;1.45;;;16.70;1.00;;;;;;5121732;27;20014;-86
2024/04/20 12:59:43;;;;;;;3.40;1.30;;;18.10;1.00;;;;;;5114696;27;20033;-87
2024/04/20 13:03:38;;;;;;;3.65;2.05;;;17.60;1.00;;;;;;5097313;27;20010;-85
2024/04/20 13:06:40;;;;;;;4.32;1.77;;;15.20;1.00;;;;;;5110941;27;20029;-80
2024/04/20 13:09:58;;;;;;;2.20;1.63;;;13.70;1.00;;;;;;5102423;27;20059;-81
2024/04/20 13:12:51;;;;;;;2.58;1.20;;;13.00;1.00;;;;;;5130324;27;20353;-85
2024/04/20 13:15:38;;;;;;;;;;;12.50;1.00;;;;;;5111572;27;20082;-84
2024/04/20 13:18:27;;;;;;;1.85;1.45;;;12.40;1.00;;;;;;5122490;27;19957;-79
2024/04/20 13:21:15;;;;;;;4.05;1.52;;;12.30;1.00;;;;;;5123290;27;20020;-85
2024/04/20 13:24:09;;;;;;;2.90;1.70;;;12.20;1.00;;;;;;5106072;27;20073;-82
2024/04/20 13:26:57;;;;;;;2.63;1.50;;;11.80;1.00;;;;;;5100724;27;20028;-83
2024/04/20 13:30:01;;;;;;;2.72;1.60;;;11.40;1.00;;;;;;5097995;27;20021;-83
2024/04/20 13:32:54;;;;;;;2.80;1.70;;;11.30;1.00;;;;;;5106840;28;20103;-84
2024/04/20 13:36:12;;;;;;;2.00;1.73;;;11.60;1.00;;;;;;5107912;28;20012;-83
2024/04/20 13:39:13;;;;;;;3.85;2.05;;;12.00;1.00;;;;;;5094883;27;20020;-81
2024/04/20 13:42:52;;;;;;;3.13;1.70;;;12.20;1.00;;;;;;5098528;27;20030;-83
2024/04/20 13:46:06;;;;;;;4.47;2.15;;;12.30;1.00;;;;;;5104257;27;20015;-79
2024/04/20 13:49:19;;;;;;;5.70;2.15;;;12.50;1.00;;;;;;5103886;27;20094;-81
2024/04/20 13:52:42;;;;;;;1.73;1.30;;;12.60;1.00;;;;;;5112125;28;20018;-84
2024/04/20 13:55:56;;;;;;;3.97;2.47;;;12.80;1.00;;;;;;5105323;27;20009;-82
2024/04/20 13:59:07;;;;;;;4.53;1.80;;;13.70;1.00;;;;;;5111386;27;20030;-83
2024/04/20 14:07:44;;;;;;;3.00;1.67;;;13.00;1.00;;;;;;5101245;27;20306;-83
2024/04/20 14:11:19;;;;;;;4.18;2.30;;;12.90;1.00;;;;;;5064822;28;20014;-79
2024/04/20 14:14:22;;;;;;;2.63;1.70;;;12.30;1.00;;;;;;5083437;27;20014;-83
2024/04/20 14:17:36;;;;;;;2.47;1.70;;;12.00;1.00;;;;;;5069448;27;20114;-85
2024/04/20 14:21:22;;;;;;;4.43;1.90;;;11.70;1.00;;;;;;4957320;28;20023;-84
2024/04/20 14:24:25;;;;;;;3.50;2.20;;;11.10;1.00;;;;;;4923990;28;20013;-84
2024/04/20 14:27:37;;;;;;;4.00;2.50;;;10.70;1.00;;;;;;4907026;29;20040;-85
2024/04/20 14:31:22;;;;;;;5.40;3.35;;;10.30;1.00;;;;;;4879705;29;20511;-83
2024/04/20 14:43:34;;;;;;;;;;;;;;;;;;;;;
2024/04/20 14:46:52;;;;;;;4.18;2.53;;;9.40;1.00;;;;;;4967420;28;20090;-83
2024/04/20 14:49:48;;;;;;;5.40;2.78;;;9.30;1.00;;;;;;5034217;28;20006;-79
2024/04/20 14:52:55;;;;;;;3.95;2.45;;;9.00;1.00;;;;;;5092778;27;20015;-83
2024/04/20 14:56:31;;;;;;;4.10;2.92;;;8.70;1.00;;;;;;5069659;28;20019;-84
2024/04/20 14:59:55;;;;;;;7.93;3.35;;;8.20;1.00;;;;;;5071053;28;20011;-86
2024/04/20 15:02:53;;;;;;;6.65;3.65;;;7.80;1.00;;;;;;5107368;27;20011;-85
2024/04/20 15:05:54;;;;;;;8.57;3.70;;;7.70;10.90;;;;;;5072883;28;20011;-81
2024/04/20 15:13:37;;;;;;;;;;;;;;;;;;;;;
2024/04/20 15:16:42;;;;;;;8.57;3.70;;;8.40;79.20;;;;;;4972490;28;20023;-83
2024/04/20 15:20:15;;;;;;;;;;;;;;;;;;;;;
2024/04/20 15:23:53;;;;;;;4.20;3.13;;;8.70;39.10;;;;;;4909151;29;20053;-82
2024/04/20 15:26:59;;;;;;;5.93;3.90;;;8.60;39.50;;;;;;4944421;28;20014;-84
2024/04/20 15:31:33;;;;;;;4.70;4.10;;;8.70;32.90;;;;;;4973600;28;20013;-81
2024/04/20 15:34:12;;;;;;;6.43;3.80;;;8.50;43.10;;;;;;4982054;28;20080;-81
2024/04/20 15:37:46;;;;;;;4.85;3.55;;;8.20;35.40;;;;;;4967346;28;20482;-81
2024/04/20 15:40:27;;;;;;;4.88;3.28;;;8.00;46.70;;;;;;5313473;22;20052;-82
2024/04/20 15:43:36;;;;;;;6.13;3.60;;;8.00;62.20;;;;;;5150151;27;20116;-79
2024/04/20 15:46:46;;;;;;;6.20;3.42;;;7.90;86.10;;;;;;5155454;27;20061;-79
2024/04/20 15:49:47;;;;;;;4.75;3.40;;;7.90;97.60;;;;;;5134502;27;20009;-79
2024/04/20 15:56:13;;;;;;;4.75;3.72;;;8.00;99.90;;;;;;5127586;27;20099;-81
2024/04/20 15:59:00;;;;;;;4.72;3.63;;;8.10;99.90;;;;;;5122624;27;20035;-80
2024/04/20 16:02:00;;;;;;;5.57;4.30;;;8.10;99.90;;;;;;5119749;27;20014;-83
2024/04/20 16:04:58;;;;;;;10.63;4.88;;;8.20;99.90;;;;;;5121730;27;20049;-82
2024/04/20 16:08:12;;;;;;;7.50;3.33;;;8.20;99.90;;;;;;5105363;27;20177;-84
2024/04/20 16:11:15;;;;;;;4.78;3.03;;;8.70;99.90;;;;;;5119198;27;20033;-84
2024/04/20 16:14:31;;;;;;;3.08;2.78;;;9.90;84.40;;;;;;5127469;27;20034;-76
2024/04/20 16:17:31;;;;;;;5.25;3.10;;;10.40;29.30;;;;;;5136382;27;20062;-83
2024/04/20 16:20:21;;;;;;;4.13;2.00;;;11.30;7.90;;;;;;5130456;27;20338;-81
2024/04/20 16:23:26;;;;;;;2.22;1.95;;;12.10;1.00;;;;;;5124351;27;20017;-83
2024/04/20 16:26:40;;;;;;;1.60;1.42;;;12.00;1.00;;;;;;5128007;27;20010;-80
2024/04/20 16:30:17;;;;;;;1.67;1.58;;;11.40;1.00;;;;;;5126177;27;20023;-85